sensor_id;sensor_type;location;lat;lon;timestamp;pressure;altitude;pressure_sealevel;temperature;humidity
30598;BME280;17365;48.878;8.334;2022-08-01T00:02:10;100117.94;;;23.06;48.44
30598;BME280;17365;48.878;8.334;2022-08-01T00:04:35;100120.75;;;23.03;48.41
30598;BME280;17365;48.878;8.334;2022-08-01T00:07:01;100123.59;;;22.98;48.82
30598;BME280;17365;48.878;8.334;2022-08-01T00:09:26;100125.03;;;23.05;48.56
30598;BME280;17365;48.878;8.334;2022-08-01T00:11:51;100124.41;;;23.00;48.69
30598;BME280;17365;48.878;8.334;2022-08-01T00:14:17;100124.34;;;23.02;48.74
30598;BME280;17365;48.878;8.334;2022-08-01T00:16:42;100128.00;;;22.99;48.67
30598;BME280;17365;48.878;8.334;2022-08-01T00:19:07;100124.09;;;22.89;49.35
30598;BME280;17365;48.878;8.334;2022-08-01T00:21:33;100126.19;;;22.81;49.49
30598;BME280;17365;48.878;8.334;2022-08-01T00:23:58;100128.28;;;22.93;49.08
30598;BME280;17365;48.878;8.334;2022-08-01T00:26:24;100128.34;;;22.73;49.63
30598;BME280;17365;48.878;8.334;2022-08-01T00:28:49;100130.44;;;22.85;49.52
30598;BME280;17365;48.878;8.334;2022-08-01T00:31:14;100127.91;;;22.82;49.49
30598;BME280;17365;48.878;8.334;2022-08-01T00:33:40;100127.88;;;22.83;49.48
30598;BME280;17365;48.878;8.334;2022-08-01T00:36:05;100128.06;;;22.79;49.69
30598;BME280;17365;48.878;8.334;2022-08-01T00:38:30;100136.78;;;22.81;49.68
30598;BME280;17365;48.878;8.334;2022-08-01T00:40:56;100134.00;;;22.84;49.53
30598;BME280;17365;48.878;8.334;2022-08-01T00:43:21;100133.06;;;22.85;49.46
30598;BME280;17365;48.878;8.334;2022-08-01T00:45:46;100126.41;;;22.76;49.97
30598;BME280;17365;48.878;8.334;2022-08-01T00:48:12;100139.59;;;22.78;49.90
30598;BME280;17365;48.878;8.334;2022-08-01T00:50:37;100131.84;;;22.73;50.32
30598;BME280;17365;48.878;8.334;2022-08-01T00:53:03;100127.41;;;22.74;50.40
30598;BME280;17365;48.878;8.334;2022-08-01T00:55:29;100124.00;;;22.72;50.27
30598;BME280;17365;48.878;8.334;2022-08-01T00:57:55;100128.66;;;22.66;50.70
30598;BME280;17365;48.878;8.334;2022-08-01T01:00:21;100120.78;;;22.65;50.93
30598;BME280;17365;48.878;8.334;2022-08-01T01:02:47;100124.22;;;22.67;50.96
30598;BME280;17365;48.878;8.334;2022-08-01T01:05:12;100127.47;;;22.55;51.51
30598;BME280;17365;48.878;8.334;2022-08-01T01:10:54;100130.13;;;22.53;51.73
30598;BME280;17365;48.878;8.334;2022-08-01T01:13:28;100135.50;;;22.52;52.03
30598;BME280;17365;48.878;8.334;2022-08-01T01:16:11;100139.66;;;22.38;52.65
30598;BME280;17365;48.878;8.334;2022-08-01T01:18:43;100129.09;;;22.38;52.46
30598;BME280;17365;48.878;8.334;2022-08-01T01:21:35;100142.22;;;22.40;52.07
30598;BME280;17365;48.878;8.334;2022-08-01T01:27:02;100147.16;;;22.29;52.71
30598;BME280;17365;48.878;8.334;2022-08-01T01:29:40;100145.72;;;22.22;53.38
30598;BME280;17365;48.878;8.334;2022-08-01T01:32:30;100148.31;;;21.83;54.85
30598;BME280;17365;48.878;8.334;2022-08-01T01:35:00;100142.31;;;21.99;54.38
30598;BME280;17365;48.878;8.334;2022-08-01T01:37:28;100140.59;;;21.98;54.49
30598;BME280;17365;48.878;8.334;2022-08-01T01:39:56;100144.66;;;21.87;54.86
30598;BME280;17365;48.878;8.334;2022-08-01T01:42:24;100144.28;;;21.94;55.13
30598;BME280;17365;48.878;8.334;2022-08-01T01:44:51;100146.00;;;21.95;54.79
30598;BME280;17365;48.878;8.334;2022-08-01T01:47:17;100142.00;;;21.87;55.32
30598;BME280;17365;48.878;8.334;2022-08-01T01:49:44;100149.66;;;21.72;55.91
30598;BME280;17365;48.878;8.334;2022-08-01T01:52:12;100138.44;;;21.88;55.65
30598;BME280;17365;48.878;8.334;2022-08-01T01:54:45;100148.53;;;21.78;55.69
30598;BME280;17365;48.878;8.334;2022-08-01T01:57:12;100154.38;;;21.85;55.74
30598;BME280;17365;48.878;8.334;2022-08-01T01:59:39;100148.53;;;21.78;56.27
30598;BME280;17365;48.878;8.334;2022-08-01T02:02:07;100149.31;;;21.80;56.10
30598;BME280;17365;48.878;8.334;2022-08-01T02:04:37;100144.03;;;21.80;56.38
30598;BME280;17365;48.878;8.334;2022-08-01T02:07:03;100149.78;;;21.69;56.66
30598;BME280;17365;48.878;8.334;2022-08-01T02:09:31;100146.91;;;21.75;56.52
30598;BME280;17365;48.878;8.334;2022-08-01T02:11:58;100153.69;;;21.81;56.27
30598;BME280;17365;48.878;8.334;2022-08-01T02:14:25;100144.81;;;21.82;56.46
30598;BME280;17365;48.878;8.334;2022-08-01T02:16:54;100149.25;;;21.82;56.56
30598;BME280;17365;48.878;8.334;2022-08-01T02:19:20;100146.94;;;21.74;56.64
30598;BME280;17365;48.878;8.334;2022-08-01T02:22:00;100146.75;;;21.58;57.12
30598;BME280;17365;48.878;8.334;2022-08-01T02:27:00;100143.25;;;21.37;58.30
30598;BME280;17365;48.878;8.334;2022-08-01T02:29:45;100148.59;;;21.14;59.12
30598;BME280;17365;48.878;8.334;2022-08-01T02:32:24;100156.19;;;21.43;57.84
30598;BME280;17365;48.878;8.334;2022-08-01T02:34:51;100145.03;;;21.37;58.39
30598;BME280;17365;48.878;8.334;2022-08-01T02:37:19;100152.34;;;21.30;58.42
30598;BME280;17365;48.878;8.334;2022-08-01T02:39:47;100148.44;;;21.39;58.43
30598;BME280;17365;48.878;8.334;2022-08-01T02:42:18;100151.59;;;21.27;59.11
30598;BME280;17365;48.878;8.334;2022-08-01T02:44:44;100156.91;;;21.25;59.14
30598;BME280;17365;48.878;8.334;2022-08-01T02:47:12;100150.38;;;21.13;59.68
30598;BME280;17365;48.878;8.334;2022-08-01T02:49:42;100151.59;;;21.05;60.14
30598;BME280;17365;48.878;8.334;2022-08-01T02:52:12;100144.72;;;21.22;59.44
30598;BME280;17365;48.878;8.334;2022-08-01T02:54:38;100148.78;;;21.09;60.37
30598;BME280;17365;48.878;8.334;2022-08-01T02:57:06;100154.50;;;20.99;60.63
30598;BME280;17365;48.878;8.334;2022-08-01T02:59:33;100155.28;;;20.79;61.59
30598;BME280;17365;48.878;8.334;2022-08-01T03:02:01;100150.56;;;21.09;60.43
30598;BME280;17365;48.878;8.334;2022-08-01T03:04:27;100152.69;;;21.21;59.87
30598;BME280;17365;48.878;8.334;2022-08-01T03:06:54;100151.72;;;21.23;59.79
30598;BME280;17365;48.878;8.334;2022-08-01T03:09:25;100156.91;;;21.25;60.04
30598;BME280;17365;48.878;8.334;2022-08-01T03:11:52;100162.50;;;21.17;60.13
30598;BME280;17365;48.878;8.334;2022-08-01T03:14:20;100150.13;;;21.19;60.53
30598;BME280;17365;48.878;8.334;2022-08-01T03:16:47;100151.59;;;21.05;60.92
30598;BME280;17365;48.878;8.334;2022-08-01T03:19:15;100148.66;;;21.12;60.67
30598;BME280;17365;48.878;8.334;2022-08-01T03:21:43;100144.22;;;21.13;60.85
30598;BME280;17365;48.878;8.334;2022-08-01T03:24:09;100148.16;;;21.03;61.28
30598;BME280;17365;48.878;8.334;2022-08-01T03:26:36;100151.00;;;20.98;61.61
30598;BME280;17365;48.878;8.334;2022-08-01T03:29:08;100149.03;;;21.03;61.33
30598;BME280;17365;48.878;8.334;2022-08-01T03:31:36;100150.81;;;21.03;61.67
30598;BME280;17365;48.878;8.334;2022-08-01T03:34:03;100149.38;;;20.94;62.04
30598;BME280;17365;48.878;8.334;2022-08-01T03:36:31;100145.03;;;20.93;62.13
30598;BME280;17365;48.878;8.334;2022-08-01T03:39:00;100145.47;;;20.82;62.80
30598;BME280;17365;48.878;8.334;2022-08-01T03:41:32;100145.22;;;20.88;62.85
30598;BME280;17365;48.878;8.334;2022-08-01T03:44:04;100149.34;;;20.96;62.54
30598;BME280;17365;48.878;8.334;2022-08-01T03:46:35;100151.91;;;20.97;62.28
30598;BME280;17365;48.878;8.334;2022-08-01T03:49:07;100153.31;;;21.06;62.27
30598;BME280;17365;48.878;8.334;2022-08-01T03:51:37;100144.50;;;21.07;62.21
30598;BME280;17365;48.878;8.334;2022-08-01T03:54:04;100145.22;;;21.10;62.11
30598;BME280;17365;48.878;8.334;2022-08-01T03:56:30;100149.88;;;21.04;62.44
30598;BME280;17365;48.878;8.334;2022-08-01T03:58:59;100139.31;;;21.04;62.73
30598;BME280;17365;48.878;8.334;2022-08-01T04:01:25;100148.53;;;20.93;63.08
30598;BME280;17365;48.878;8.334;2022-08-01T04:03:50;100157.41;;;21.13;62.56
30598;BME280;17365;48.878;8.334;2022-08-01T04:06:16;100154.19;;;21.28;62.02
30598;BME280;17365;48.878;8.334;2022-08-01T04:08:42;100154.28;;;21.25;62.08
30598;BME280;17365;48.878;8.334;2022-08-01T04:11:08;100156.97;;;21.23;62.57
30598;BME280;17365;48.878;8.334;2022-08-01T04:13:33;100154.66;;;21.38;61.78
30598;BME280;17365;48.878;8.334;2022-08-01T04:15:59;100154.72;;;21.36;62.19
30598;BME280;17365;48.878;8.334;2022-08-01T04:18:24;100152.69;;;21.43;62.08
30598;BME280;17365;48.878;8.334;2022-08-01T04:20:50;100152.56;;;21.46;61.88
30598;BME280;17365;48.878;8.334;2022-08-01T04:23:17;100148.66;;;21.34;62.26
30598;BME280;17365;48.878;8.334;2022-08-01T04:25:46;100162.13;;;21.48;62.27
30598;BME280;17365;48.878;8.334;2022-08-01T04:28:13;100154.34;;;21.45;62.35
30598;BME280;17365;48.878;8.334;2022-08-01T04:30:44;100156.47;;;21.58;61.98
30598;BME280;17365;48.878;8.334;2022-08-01T04:33:13;100158.03;;;21.62;62.13
30598;BME280;17365;48.878;8.334;2022-08-01T04:35:43;100159.28;;;21.94;61.19
30598;BME280;17365;48.878;8.334;2022-08-01T04:38:11;100156.59;;;22.34;59.77
30598;BME280;17365;48.878;8.334;2022-08-01T04:40:40;100155.16;;;22.65;58.91
30598;BME280;17365;48.878;8.334;2022-08-01T04:43:06;100157.09;;;22.80;58.46
30598;BME280;17365;48.878;8.334;2022-08-01T04:45:33;100165.31;;;22.93;57.92
30598;BME280;17365;48.878;8.334;2022-08-01T04:47:59;100164.78;;;22.28;59.90
30598;BME280;17365;48.878;8.334;2022-08-01T04:50:25;100165.59;;;22.49;59.47
30598;BME280;17365;48.878;8.334;2022-08-01T04:52:51;100161.25;;;22.48;59.73
30598;BME280;17365;48.878;8.334;2022-08-01T04:55:16;100168.03;;;22.35;60.22
30598;BME280;17365;48.878;8.334;2022-08-01T04:57:44;100159.88;;;22.58;59.53
30598;BME280;17365;48.878;8.334;2022-08-01T05:00:10;100153.84;;;23.11;57.88
30598;BME280;17365;48.878;8.334;2022-08-01T05:02:35;100159.94;;;23.48;56.52
30598;BME280;17365;48.878;8.334;2022-08-01T05:05:01;100156.75;;;23.76;55.34
30598;BME280;17365;48.878;8.334;2022-08-01T05:07:26;100152.47;;;23.91;54.62
30598;BME280;17365;48.878;8.334;2022-08-01T05:09:51;100157.41;;;24.14;53.95
30598;BME280;17365;48.878;8.334;2022-08-01T05:12:17;100158.69;;;24.40;53.54
30598;BME280;17365;48.878;8.334;2022-08-01T05:14:43;100160.84;;;24.65;52.80
30598;BME280;17365;48.878;8.334;2022-08-01T05:17:09;100157.75;;;24.73;52.33
30598;BME280;17365;48.878;8.334;2022-08-01T05:19:36;100155.81;;;24.27;53.91
30598;BME280;17365;48.878;8.334;2022-08-01T05:22:03;100161.94;;;24.61;52.61
30598;BME280;17365;48.878;8.334;2022-08-01T05:24:33;100160.56;;;24.54;53.13
30598;BME280;17365;48.878;8.334;2022-08-01T05:26:59;100160.16;;;24.77;52.51
30598;BME280;17365;48.878;8.334;2022-08-01T05:29:25;100160.16;;;24.61;52.39
30598;BME280;17365;48.878;8.334;2022-08-01T05:31:52;100168.88;;;24.79;52.96
30598;BME280;17365;48.878;8.334;2022-08-01T05:34:18;100161.53;;;24.84;52.13
30598;BME280;17365;48.878;8.334;2022-08-01T05:36:44;100168.09;;;24.77;52.48
30598;BME280;17365;48.878;8.334;2022-08-01T05:39:09;100174.75;;;24.37;53.43
30598;BME280;17365;48.878;8.334;2022-08-01T05:41:38;100167.41;;;24.89;51.81
30598;BME280;17365;48.878;8.334;2022-08-01T05:44:04;100169.72;;;25.27;50.47
30598;BME280;17365;48.878;8.334;2022-08-01T05:46:30;100171.19;;;25.17;51.45
30598;BME280;17365;48.878;8.334;2022-08-01T05:49:01;100168.53;;;25.17;50.69
30598;BME280;17365;48.878;8.334;2022-08-01T05:51:27;100171.88;;;24.89;51.98
30598;BME280;17365;48.878;8.334;2022-08-01T05:53:53;100168.53;;;25.01;51.93
30598;BME280;17365;48.878;8.334;2022-08-01T05:56:20;100168.91;;;25.41;50.54
30598;BME280;17365;48.878;8.334;2022-08-01T05:58:45;100167.91;;;25.28;50.92
30598;BME280;17365;48.878;8.334;2022-08-01T06:01:11;100167.06;;;25.27;50.32
30598;BME280;17365;48.878;8.334;2022-08-01T06:03:36;100179.81;;;24.42;53.62
30598;BME280;17365;48.878;8.334;2022-08-01T06:06:03;100175.13;;;24.62;52.60
30598;BME280;17365;48.878;8.334;2022-08-01T06:08:28;100170.88;;;25.07;52.03
30598;BME280;17365;48.878;8.334;2022-08-01T06:10:54;100173.66;;;25.20;51.86
30598;BME280;17365;48.878;8.334;2022-08-01T06:13:19;100174.47;;;25.66;50.28
30598;BME280;17365;48.878;8.334;2022-08-01T06:15:45;100177.97;;;25.07;51.10
30598;BME280;17365;48.878;8.334;2022-08-01T06:18:11;100177.44;;;24.84;52.16
30598;BME280;17365;48.878;8.334;2022-08-01T06:20:37;100172.84;;;25.34;50.71
30598;BME280;17365;48.878;8.334;2022-08-01T06:23:03;100173.50;;;25.53;50.37
30598;BME280;17365;48.878;8.334;2022-08-01T06:25:28;100185.31;;;25.17;51.07
30598;BME280;17365;48.878;8.334;2022-08-01T06:27:54;100175.28;;;24.91;51.60
30598;BME280;17365;48.878;8.334;2022-08-01T06:30:19;100177.31;;;25.33;50.70
30598;BME280;17365;48.878;8.334;2022-08-01T06:32:45;100173.94;;;25.45;50.51
30598;BME280;17365;48.878;8.334;2022-08-01T06:35:10;100173.22;;;25.28;51.15
30598;BME280;17365;48.878;8.334;2022-08-01T06:37:35;100182.25;;;25.09;51.86
30598;BME280;17365;48.878;8.334;2022-08-01T06:40:03;100185.22;;;25.19;51.92
30598;BME280;17365;48.878;8.334;2022-08-01T06:42:29;100183.19;;;24.92;52.46
30598;BME280;17365;48.878;8.334;2022-08-01T06:44:57;100186.59;;;24.94;52.41
30598;BME280;17365;48.878;8.334;2022-08-01T06:47:22;100181.00;;;25.31;51.63
30598;BME280;17365;48.878;8.334;2022-08-01T06:49:48;100191.81;;;25.12;51.95
30598;BME280;17365;48.878;8.334;2022-08-01T06:52:13;100194.91;;;25.20;52.06
30598;BME280;17365;48.878;8.334;2022-08-01T06:54:38;100194.66;;;25.09;52.37
30598;BME280;17365;48.878;8.334;2022-08-01T06:57:06;100194.53;;;24.79;53.64
30598;BME280;17365;48.878;8.334;2022-08-01T06:59:32;100193.34;;;25.00;53.18
30598;BME280;17365;48.878;8.334;2022-08-01T07:01:57;100199.88;;;25.26;52.45
30598;BME280;17365;48.878;8.334;2022-08-01T07:04:22;100194.41;;;25.89;50.76
30598;BME280;17365;48.878;8.334;2022-08-01T07:06:48;100203.13;;;25.91;50.34
30598;BME280;17365;48.878;8.334;2022-08-01T07:09:13;100194.63;;;25.70;51.93
30598;BME280;17365;48.878;8.334;2022-08-01T07:11:38;100204.56;;;25.97;50.66
30598;BME280;17365;48.878;8.334;2022-08-01T07:14:04;100203.81;;;25.19;53.10
30598;BME280;17365;48.878;8.334;2022-08-01T07:16:29;100202.88;;;25.20;52.90
30598;BME280;17365;48.878;8.334;2022-08-01T07:18:54;100203.44;;;24.78;54.77
30598;BME280;17365;48.878;8.334;2022-08-01T07:21:20;100194.94;;;24.39;55.53
30598;BME280;17365;48.878;8.334;2022-08-01T07:23:45;100195.41;;;24.79;54.63
30598;BME280;17365;48.878;8.334;2022-08-01T07:26:10;100199.00;;;24.47;55.88
30598;BME280;17365;48.878;8.334;2022-08-01T07:28:36;100201.06;;;24.73;55.48
30598;BME280;17365;48.878;8.334;2022-08-01T07:31:01;100195.31;;;24.96;55.25
30598;BME280;17365;48.878;8.334;2022-08-01T07:33:26;100197.72;;;25.33;54.22
30598;BME280;17365;48.878;8.334;2022-08-01T07:35:51;100191.59;;;25.46;53.50
30598;BME280;17365;48.878;8.334;2022-08-01T07:38:17;100191.03;;;24.78;55.37
30598;BME280;17365;48.878;8.334;2022-08-01T07:40:43;100190.03;;;24.81;55.59
30598;BME280;17365;48.878;8.334;2022-08-01T07:43:09;100192.34;;;25.18;54.51
30598;BME280;17365;48.878;8.334;2022-08-01T07:45:34;100193.47;;;25.14;53.98
30598;BME280;17365;48.878;8.334;2022-08-01T07:48:05;100187.97;;;25.47;53.78
30598;BME280;17365;48.878;8.334;2022-08-01T07:50:31;100190.00;;;24.65;56.16
30598;BME280;17365;48.878;8.334;2022-08-01T07:52:57;100184.47;;;24.85;55.67
30598;BME280;17365;48.878;8.334;2022-08-01T07:55:22;100185.78;;;25.40;54.29
30598;BME280;17365;48.878;8.334;2022-08-01T07:57:47;100187.28;;;24.82;55.48
30598;BME280;17365;48.878;8.334;2022-08-01T08:00:13;100187.53;;;25.25;54.56
30598;BME280;17365;48.878;8.334;2022-08-01T08:02:38;100184.25;;;25.66;53.08
30598;BME280;17365;48.878;8.334;2022-08-01T08:05:04;100178.59;;;25.42;54.41
30598;BME280;17365;48.878;8.334;2022-08-01T08:07:31;100186.44;;;26.03;52.64
30598;BME280;17365;48.878;8.334;2022-08-01T08:09:56;100173.53;;;26.54;50.74
30598;BME280;17365;48.878;8.334;2022-08-01T08:12:22;100170.41;;;26.19;51.12
30598;BME280;17365;48.878;8.334;2022-08-01T08:14:47;100165.94;;;26.20;51.48
30598;BME280;17365;48.878;8.334;2022-08-01T08:17:13;100165.63;;;26.67;50.34
30598;BME280;17365;48.878;8.334;2022-08-01T08:19:38;100163.00;;;26.38;50.67
30598;BME280;17365;48.878;8.334;2022-08-01T08:22:06;100170.41;;;26.05;51.38
30598;BME280;17365;48.878;8.334;2022-08-01T08:24:32;100165.28;;;26.30;51.25
30598;BME280;17365;48.878;8.334;2022-08-01T08:26:59;100161.84;;;26.57;50.86
30598;BME280;17365;48.878;8.334;2022-08-01T08:29:25;100158.16;;;26.31;51.59
30598;BME280;17365;48.878;8.334;2022-08-01T08:31:54;100164.91;;;26.08;51.51
30598;BME280;17365;48.878;8.334;2022-08-01T08:34:20;100150.13;;;26.74;50.36
30598;BME280;17365;48.878;8.334;2022-08-01T08:36:45;100156.59;;;27.11;49.32
30598;BME280;17365;48.878;8.334;2022-08-01T08:39:10;100148.84;;;27.20;49.13
30598;BME280;17365;48.878;8.334;2022-08-01T08:41:36;100152.72;;;27.02;49.29
30598;BME280;17365;48.878;8.334;2022-08-01T08:44:03;100150.63;;;26.23;50.70
30598;BME280;17365;48.878;8.334;2022-08-01T08:46:28;100150.72;;;26.36;50.29
30598;BME280;17365;48.878;8.334;2022-08-01T08:48:57;100144.03;;;27.13;48.27
30598;BME280;17365;48.878;8.334;2022-08-01T08:51:26;100148.91;;;26.65;49.64
30598;BME280;17365;48.878;8.334;2022-08-01T08:53:54;100143.34;;;26.41;49.64
30598;BME280;17365;48.878;8.334;2022-08-01T08:56:20;100145.19;;;26.67;49.75
30598;BME280;17365;48.878;8.334;2022-08-01T08:58:46;100145.25;;;26.80;49.33
30598;BME280;17365;48.878;8.334;2022-08-01T09:01:12;100143.03;;;27.41;47.74
30598;BME280;17365;48.878;8.334;2022-08-01T09:03:38;100141.50;;;27.64;47.32
30598;BME280;17365;48.878;8.334;2022-08-01T09:06:03;100143.09;;;26.99;48.62
30598;BME280;17365;48.878;8.334;2022-08-01T09:08:29;100146.53;;;26.75;48.65
30598;BME280;17365;48.878;8.334;2022-08-01T09:10:55;100149.66;;;26.94;48.46
30598;BME280;17365;48.878;8.334;2022-08-01T09:13:20;100147.84;;;26.94;48.45
30598;BME280;17365;48.878;8.334;2022-08-01T09:15:50;100146.38;;;27.17;48.30
30598;BME280;17365;48.878;8.334;2022-08-01T09:18:38;100149.56;;;26.68;48.66
30598;BME280;17365;48.878;8.334;2022-08-01T09:21:11;100153.09;;;27.10;47.70
30598;BME280;17365;48.878;8.334;2022-08-01T09:23:41;100147.66;;;26.70;48.67
30598;BME280;17365;48.878;8.334;2022-08-01T09:26:11;100141.75;;;27.34;47.35
30598;BME280;17365;48.878;8.334;2022-08-01T09:28:37;100141.97;;;27.31;47.56
30598;BME280;17365;48.878;8.334;2022-08-01T09:31:08;100147.59;;;27.26;47.50
30598;BME280;17365;48.878;8.334;2022-08-01T09:33:54;100149.41;;;28.03;45.65
30598;BME280;17365;48.878;8.334;2022-08-01T09:36:26;100154.19;;;28.49;44.73
30598;BME280;17365;48.878;8.334;2022-08-01T09:38:53;100148.66;;;28.01;45.66
30598;BME280;17365;48.878;8.334;2022-08-01T09:41:29;100140.34;;;27.93;45.43
30598;BME280;17365;48.878;8.334;2022-08-01T09:43:55;100150.91;;;27.69;46.33
30598;BME280;17365;48.878;8.334;2022-08-01T09:46:21;100150.88;;;28.07;45.27
30598;BME280;17365;48.878;8.334;2022-08-01T09:49:00;100144.72;;;28.32;45.00
30598;BME280;17365;48.878;8.334;2022-08-01T09:51:30;100150.44;;;28.52;44.18
30598;BME280;17365;48.878;8.334;2022-08-01T09:53:56;100155.19;;;28.35;44.24
30598;BME280;17365;48.878;8.334;2022-08-01T09:56:22;100152.13;;;28.53;43.97
30598;BME280;17365;48.878;8.334;2022-08-01T09:58:56;100149.94;;;27.96;44.82
30598;BME280;17365;48.878;8.334;2022-08-01T10:01:22;100149.38;;;27.52;45.60
30598;BME280;17365;48.878;8.334;2022-08-01T10:04:04;100151.75;;;28.46;44.30
30598;BME280;17365;48.878;8.334;2022-08-01T10:06:29;100147.16;;;28.35;43.94
30598;BME280;17365;48.878;8.334;2022-08-01T10:08:55;100140.19;;;28.58;43.38
30598;BME280;17365;48.878;8.334;2022-08-01T10:11:20;100141.47;;;29.13;42.55
30598;BME280;17365;48.878;8.334;2022-08-01T10:13:47;100138.38;;;28.83;43.60
30598;BME280;17365;48.878;8.334;2022-08-01T10:16:13;100136.25;;;28.75;43.52
30598;BME280;17365;48.878;8.334;2022-08-01T10:18:41;100146.75;;;27.91;45.25
30598;BME280;17365;48.878;8.334;2022-08-01T10:21:06;100130.41;;;28.08;45.42
30598;BME280;17365;48.878;8.334;2022-08-01T10:23:36;100132.44;;;28.17;45.09
30598;BME280;17365;48.878;8.334;2022-08-01T10:26:02;100127.22;;;28.28;44.81
30598;BME280;17365;48.878;8.334;2022-08-01T10:28:30;100127.56;;;27.98;45.43
30598;BME280;17365;48.878;8.334;2022-08-01T10:30:57;100132.22;;;28.20;45.31
30598;BME280;17365;48.878;8.334;2022-08-01T10:33:24;100125.06;;;28.46;44.19
30598;BME280;17365;48.878;8.334;2022-08-01T10:35:50;100135.22;;;27.65;46.08
30598;BME280;17365;48.878;8.334;2022-08-01T10:38:16;100121.47;;;28.09;45.07
30598;BME280;17365;48.878;8.334;2022-08-01T10:40:42;100125.72;;;28.37;45.06
30598;BME280;17365;48.878;8.334;2022-08-01T10:43:14;100125.50;;;28.27;44.40
30598;BME280;17365;48.878;8.334;2022-08-01T10:45:42;100114.19;;;28.24;44.54
30598;BME280;17365;48.878;8.334;2022-08-01T10:48:14;100119.09;;;28.30;44.46
30598;BME280;17365;48.878;8.334;2022-08-01T10:50:47;100118.47;;;28.63;43.24
30598;BME280;17365;48.878;8.334;2022-08-01T10:53:23;100115.22;;;29.07;41.83
30598;BME280;17365;48.878;8.334;2022-08-01T10:58:20;100109.34;;;28.41;42.83
30598;BME280;17365;48.878;8.334;2022-08-01T11:00:46;100117.41;;;28.03;44.32
30598;BME280;17365;48.878;8.334;2022-08-01T11:03:11;100116.72;;;28.25;43.37
30598;BME280;17365;48.878;8.334;2022-08-01T11:05:36;100116.41;;;28.17;44.11
30598;BME280;17365;48.878;8.334;2022-08-01T11:08:06;100106.22;;;28.60;43.11
30598;BME280;17365;48.878;8.334;2022-08-01T11:10:37;100113.06;;;28.76;41.86
30598;BME280;17365;48.878;8.334;2022-08-01T11:13:03;100106.94;;;28.86;41.21
30598;BME280;17365;48.878;8.334;2022-08-01T11:15:33;100107.88;;;29.33;40.67
30598;BME280;17365;48.878;8.334;2022-08-01T11:20:58;100098.16;;;28.97;41.99
30598;BME280;17365;48.878;8.334;2022-08-01T11:23:25;100096.75;;;29.04;41.13
30598;BME280;17365;48.878;8.334;2022-08-01T11:28:19;100095.72;;;28.70;42.46
30598;BME280;17365;48.878;8.334;2022-08-01T11:30:51;100094.16;;;28.91;41.71
30598;BME280;17365;48.878;8.334;2022-08-01T11:33:18;100089.03;;;29.12;41.31
30598;BME280;17365;48.878;8.334;2022-08-01T11:38:49;100072.13;;;28.64;41.92
30598;BME280;17365;48.878;8.334;2022-08-01T11:41:35;100074.00;;;28.75;42.08
30598;BME280;17365;48.878;8.334;2022-08-01T11:44:07;100078.78;;;27.96;43.32
30598;BME280;17365;48.878;8.334;2022-08-01T11:49:44;100070.22;;;28.17;42.76
30598;BME280;17365;48.878;8.334;2022-08-01T11:52:14;100073.75;;;28.54;41.56
30598;BME280;17365;48.878;8.334;2022-08-01T11:57:12;100067.69;;;29.23;40.54
30598;BME280;17365;48.878;8.334;2022-08-01T11:59:41;100060.25;;;29.84;39.05
30598;BME280;17365;48.878;8.334;2022-08-01T12:02:27;100052.22;;;30.29;38.09
30598;BME280;17365;48.878;8.334;2022-08-01T12:04:56;100063.66;;;30.20;38.79
30598;BME280;17365;48.878;8.334;2022-08-01T12:07:22;100056.00;;;29.71;39.17
30598;BME280;17365;48.878;8.334;2022-08-01T12:09:51;100060.97;;;29.86;39.13
30598;BME280;17365;48.878;8.334;2022-08-01T12:12:21;100055.03;;;30.05;38.64
30598;BME280;17365;48.878;8.334;2022-08-01T12:14:53;100054.91;;;29.62;39.01
30598;BME280;17365;48.878;8.334;2022-08-01T12:17:20;100062.25;;;29.36;39.30
30598;BME280;17365;48.878;8.334;2022-08-01T12:19:51;100048.94;;;29.92;38.59
30598;BME280;17365;48.878;8.334;2022-08-01T12:22:17;100047.50;;;30.10;38.26
30598;BME280;17365;48.878;8.334;2022-08-01T12:24:46;100053.00;;;29.40;38.80
30598;BME280;17365;48.878;8.334;2022-08-01T12:27:24;100045.91;;;29.74;37.94
30598;BME280;17365;48.878;8.334;2022-08-01T12:29:49;100056.03;;;29.24;38.65
30598;BME280;17365;48.878;8.334;2022-08-01T12:32:42;100050.19;;;29.31;39.50
30598;BME280;17365;48.878;8.334;2022-08-01T12:35:27;100047.34;;;29.67;39.06
30598;BME280;17365;48.878;8.334;2022-08-01T12:37:55;100049.16;;;29.67;39.69
30598;BME280;17365;48.878;8.334;2022-08-01T12:40:26;100054.06;;;29.84;38.61
30598;BME280;17365;48.878;8.334;2022-08-01T12:42:54;100040.69;;;30.18;38.49
30598;BME280;17365;48.878;8.334;2022-08-01T12:45:34;100052.59;;;30.36;38.01
30598;BME280;17365;48.878;8.334;2022-08-01T12:48:01;100053.69;;;30.11;37.76
30598;BME280;17365;48.878;8.334;2022-08-01T12:50:29;100049.72;;;30.71;37.14
30598;BME280;17365;48.878;8.334;2022-08-01T12:52:55;100040.94;;;29.81;37.79
30598;BME280;17365;48.878;8.334;2022-08-01T12:55:22;100045.91;;;29.97;38.55
30598;BME280;17365;48.878;8.334;2022-08-01T12:58:02;100043.75;;;30.13;37.64
30598;BME280;17365;48.878;8.334;2022-08-01T13:00:28;100050.28;;;29.98;37.98
30598;BME280;17365;48.878;8.334;2022-08-01T13:03:05;100053.81;;;29.18;38.73
30598;BME280;17365;48.878;8.334;2022-08-01T13:08:18;100039.59;;;29.86;38.27
30598;BME280;17365;48.878;8.334;2022-08-01T13:10:44;100041.66;;;29.83;38.01
30598;BME280;17365;48.878;8.334;2022-08-01T13:13:10;100040.94;;;30.14;37.49
30598;BME280;17365;48.878;8.334;2022-08-01T13:15:38;100034.16;;;30.54;36.57
30598;BME280;17365;48.878;8.334;2022-08-01T13:18:28;100036.19;;;30.07;37.48
30598;BME280;17365;48.878;8.334;2022-08-01T13:21:13;100042.50;;;29.95;36.94
30598;BME280;17365;48.878;8.334;2022-08-01T13:23:41;100044.56;;;30.25;36.37